マサトラン の空港の天気 - METARとTAF

ヘネラル・ラファエル・ブエルナ国際空港 ( MMMZ / MZT ) - メキシコ シナロア州マサトラン
飛行場実況気象(Metar)
観測時間12/01 15:40 MST (12/01 22:40 UTC)
風向・風速西北西 4m/s
視程10km以上
天気現象
なし
気温25℃
湿度65%
気圧1013hPa
METARMMMZ 012240Z 29007KT 15SM SKC 25/18 A2990 RMK ISOL CU NE-E
過去の天気等 Google飛行場航空写真 Wunderground天気予報

過去48時間のMETAR

飛行場予報(TAF)
発表時間: 12/01 15:39 MST (12/01 22:39 UTC)
予報対象時間: 1日17時 MST ~ 2日23時 MST
風向・風速西 3m/s
視程10km以上
全天の4割程度の雲 雲底高度 550m
1日21時 MST から
風向・風速東北東 3m/s
視程10km以上
全天の4割程度の雲 雲底高度 460m
全天の4割程度の雲 雲底高度 150m
2日4時 MST ~ 2日8時 MST に一時的に
視程4830m
天気現象もや 煙霧
2日10時 MST から
風向・風速西 3m/s
視程10km以上
なし
2日12時 MST から
風向・風速西 5m/s
視程10km以上
なし
2日20時 MST から
風向・風速北 3m/s
視程10km以上
なし
TAF MMMZ 012239Z 0200/0306 27006KT P6SM SCT018 TN14/0212Z TX28/0219Z
FM020400 07005KT P6SM SCT015 SCT005
TEMPO 0211/0215 3SM BR HZ
FM021700 27006KT P6SM SKC
FM021900 28010KT P6SM SKC
FM030300 35005KT P6SM SKC